createdAt,value
2017-10-28T00:00:52.506Z,63.73
2017-10-28T00:03:18.958Z,63.74
2017-10-28T00:05:45.307Z,63.77
2017-10-28T00:08:11.518Z,63.79
2017-10-28T00:10:37.719Z,63.75
2017-10-28T00:13:04.267Z,63.65
2017-10-28T00:15:30.471Z,63.69
2017-10-28T00:17:56.915Z,63.67
2017-10-28T00:20:23.189Z,63.63
2017-10-28T00:22:49.391Z,63.64
2017-10-28T00:25:15.597Z,63.52
2017-10-28T00:27:42.265Z,63.53
2017-10-28T00:30:14.602Z,63.48
2017-10-28T00:35:47.348Z,63.66
2017-10-28T00:38:14.014Z,63.63
2017-10-28T00:40:40.242Z,63.60
2017-10-28T00:43:06.452Z,63.59
2017-10-28T00:45:33.349Z,63.50
2017-10-28T00:47:59.550Z,63.53
2017-10-28T00:50:25.751Z,63.50
2017-10-28T00:52:52.016Z,63.47
2017-10-28T00:55:18.205Z,63.48
2017-10-28T00:57:44.416Z,63.52
2017-10-28T01:00:10.750Z,63.48
2017-10-28T01:02:37.188Z,63.48
2017-10-28T01:05:03.378Z,63.41
2017-10-28T01:07:29.625Z,63.42
2017-10-28T01:09:55.827Z,63.38
2017-10-28T01:12:22.013Z,63.31
2017-10-28T01:14:48.572Z,63.30
2017-10-28T01:17:14.776Z,63.29
2017-10-28T01:19:40.969Z,63.26
2017-10-28T01:22:07.290Z,63.17
2017-10-28T01:24:33.486Z,63.18
2017-10-28T01:26:59.671Z,63.13
2017-10-28T01:29:26.658Z,63.05
2017-10-28T01:31:52.855Z,63.08
2017-10-28T01:34:19.031Z,63.05
2017-10-28T01:36:45.308Z,63.05
2017-10-28T01:39:11.702Z,63.02
2017-10-28T01:41:38.170Z,63.14
2017-10-28T01:44:04.662Z,63.16
2017-10-28T01:46:30.880Z,63.20
2017-10-28T01:48:57.097Z,63.18
2017-10-28T01:51:23.585Z,63.13
2017-10-28T01:53:50.028Z,63.16
2017-10-28T01:56:16.247Z,63.15
2017-10-28T01:58:42.496Z,63.17
2017-10-28T02:01:08.692Z,63.16
2017-10-28T02:03:34.894Z,63.17
2017-10-28T02:06:01.222Z,63.13
2017-10-28T02:08:27.402Z,63.19
2017-10-28T02:10:53.842Z,63.04
2017-10-28T02:13:20.182Z,62.99
2017-10-28T02:15:46.627Z,63.03
2017-10-28T02:20:38.975Z,62.95
2017-10-28T02:23:05.171Z,62.98
2017-10-28T02:25:31.356Z,63.06
2017-10-28T02:27:57.701Z,63.02
2017-10-28T02:30:23.991Z,63.03
2017-10-28T02:32:50.287Z,63.02
2017-10-28T02:35:16.520Z,63.03
2017-10-28T02:37:42.875Z,62.91
2017-10-28T02:40:09.243Z,62.88
2017-10-28T02:42:35.446Z,62.89
2017-10-28T02:45:02.191Z,62.82
2017-10-28T02:47:28.362Z,62.79
2017-10-28T02:49:54.570Z,62.84
2017-10-28T02:52:21.178Z,62.79
2017-10-28T02:54:47.667Z,62.81
2017-10-28T02:57:13.855Z,62.78
2017-10-28T02:59:40.117Z,62.69
2017-10-28T03:02:06.368Z,62.69
2017-10-28T03:04:32.567Z,62.67
2017-10-28T03:06:58.796Z,62.60
2017-10-28T03:09:25.908Z,62.58
2017-10-28T03:11:52.131Z,62.53
2017-10-28T03:14:18.339Z,62.30
2017-10-28T03:16:44.837Z,62.33
2017-10-28T03:19:11.040Z,62.40
2017-10-28T03:21:37.241Z,62.38
2017-10-28T03:24:03.831Z,62.37
2017-10-28T03:26:30.032Z,62.36
2017-10-28T03:28:56.232Z,62.27
2017-10-28T03:31:22.826Z,62.25
2017-10-28T03:33:49.029Z,62.30
2017-10-28T03:36:15.299Z,62.26
2017-10-28T03:38:41.543Z,62.26
2017-10-28T03:41:07.854Z,62.28
2017-10-28T03:43:34.275Z,62.17
2017-10-28T03:46:00.530Z,62.23
2017-10-28T03:48:26.745Z,62.30
2017-10-28T03:50:52.940Z,62.32
2017-10-28T03:53:19.543Z,62.38
2017-10-28T03:55:45.768Z,62.32
2017-10-28T03:58:11.974Z,62.33
2017-10-28T04:00:38.629Z,62.25
2017-10-28T04:03:04.838Z,62.15
2017-10-28T04:05:31.064Z,62.27
2017-10-28T04:07:57.393Z,62.25
2017-10-28T04:10:23.594Z,62.19
2017-10-28T04:12:49.790Z,62.23
2017-10-28T04:15:16.062Z,62.20
2017-10-28T04:17:42.327Z,62.17
2017-10-28T04:20:08.539Z,62.13
2017-10-28T04:22:34.754Z,62.18
2017-10-28T04:25:00.961Z,62.13
2017-10-28T04:27:27.301Z,62.19
2017-10-28T04:29:53.505Z,62.23
2017-10-28T04:32:19.962Z,62.21
2017-10-28T04:34:46.220Z,62.23
2017-10-28T04:37:12.725Z,62.15
2017-10-28T04:39:38.947Z,61.98
2017-10-28T04:42:05.714Z,62.10
2017-10-28T04:44:31.898Z,62.10
2017-10-28T04:46:58.098Z,62.09
2017-10-28T04:49:24.374Z,62.01
2017-10-28T04:51:50.573Z,62.01
2017-10-28T04:54:16.771Z,62.07
2017-10-28T04:56:43.015Z,62.04
2017-10-28T04:59:09.214Z,62.05
2017-10-28T05:01:35.416Z,62.03
2017-10-28T05:04:01.674Z,62.00
2017-10-28T05:06:27.886Z,62.03
2017-10-28T05:08:54.087Z,62.03
2017-10-28T05:11:20.799Z,62.06
2017-10-28T05:13:47.011Z,62.01
2017-10-28T05:16:13.222Z,61.98
2017-10-28T05:18:40.190Z,61.89
2017-10-28T05:21:06.402Z,61.88
2017-10-28T05:23:32.597Z,61.89
2017-10-28T05:25:58.937Z,61.89
2017-10-28T05:28:25.139Z,61.83
2017-10-28T05:30:51.340Z,61.88
2017-10-28T05:33:17.582Z,61.83
2017-10-28T05:35:43.810Z,61.80
2017-10-28T05:38:10.047Z,61.82
2017-10-28T05:40:36.306Z,61.82
2017-10-28T05:43:02.682Z,61.80
2017-10-28T05:45:29.186Z,61.85
2017-10-28T05:47:55.548Z,61.85
2017-10-28T05:50:21.829Z,61.87
2017-10-28T05:52:48.029Z,61.92
2017-10-28T05:55:14.315Z,61.93
2017-10-28T05:57:40.506Z,61.93
2017-10-28T06:00:06.707Z,61.89
2017-10-28T06:02:33.270Z,61.90
2017-10-28T06:04:59.728Z,61.90
2017-10-28T06:07:25.907Z,61.87
2017-10-28T06:09:52.523Z,61.88
2017-10-28T06:12:18.737Z,61.81
2017-10-28T06:14:44.936Z,61.83
2017-10-28T06:17:11.521Z,61.78
2017-10-28T06:19:37.980Z,61.74
2017-10-28T06:22:04.166Z,61.72
2017-10-28T06:24:30.429Z,61.72
2017-10-28T06:26:56.633Z,61.72
2017-10-28T06:29:22.831Z,61.72
2017-10-28T06:31:49.393Z,61.70
2017-10-28T06:34:15.599Z,61.77
2017-10-28T06:36:41.798Z,61.73
2017-10-28T06:39:08.066Z,61.62
2017-10-28T06:41:34.274Z,61.68
2017-10-28T06:44:00.473Z,61.65
2017-10-28T06:46:26.814Z,61.56
2017-10-28T06:48:53.348Z,61.54
2017-10-28T06:51:19.779Z,61.50
2017-10-28T06:53:46.350Z,61.47
2017-10-28T06:56:12.555Z,61.40
2017-10-28T06:58:38.995Z,61.37
2017-10-28T07:01:05.658Z,61.37
2017-10-28T07:03:31.851Z,61.33
2017-10-28T07:05:58.381Z,61.35
2017-10-28T07:08:24.882Z,61.23
2017-10-28T07:10:51.096Z,61.29
2017-10-28T07:13:17.322Z,61.24
2017-10-28T07:15:43.905Z,61.22
2017-10-28T07:18:10.106Z,61.21
2017-10-28T07:20:36.541Z,61.12
2017-10-28T07:23:03.106Z,61.14
2017-10-28T07:25:29.538Z,61.08
2017-10-28T07:27:55.728Z,61.02
2017-10-28T07:30:22.219Z,61.00
2017-10-28T07:32:48.426Z,60.92
2017-10-28T07:35:14.639Z,60.89
2017-10-28T07:37:41.151Z,60.91
2017-10-28T07:40:07.346Z,60.86
2017-10-28T07:42:33.846Z,60.80
2017-10-28T07:45:00.101Z,60.75
2017-10-28T07:47:26.558Z,60.75
2017-10-28T07:49:52.757Z,60.71
2017-10-28T07:52:19.037Z,60.76
2017-10-28T07:54:45.244Z,60.78
2017-10-28T07:57:11.722Z,60.68
2017-10-28T07:59:37.964Z,60.59
2017-10-28T08:02:04.391Z,60.59
2017-10-28T08:04:30.628Z,60.50
2017-10-28T08:06:56.848Z,60.41
2017-10-28T08:09:23.101Z,60.27
2017-10-28T08:11:49.303Z,60.24
2017-10-28T08:14:15.497Z,60.30
2017-10-28T08:16:41.981Z,60.32
2017-10-28T08:19:08.174Z,60.33
2017-10-28T08:21:34.372Z,60.24
2017-10-28T08:24:00.703Z,60.19
2017-10-28T08:26:26.905Z,60.03
2017-10-28T08:28:53.107Z,59.95
2017-10-28T08:31:19.636Z,59.93
2017-10-28T08:33:45.851Z,59.93
2017-10-28T08:36:12.297Z,59.92
2017-10-28T08:38:38.622Z,60.00
2017-10-28T08:41:04.867Z,59.92
2017-10-28T08:43:31.065Z,60.03
2017-10-28T08:45:57.346Z,60.00
2017-10-28T08:48:23.542Z,60.00
2017-10-28T08:50:49.752Z,59.90
2017-10-28T08:53:16.088Z,59.82
2017-10-28T08:55:42.273Z,59.78
2017-10-28T08:58:08.473Z,59.64
2017-10-28T09:00:34.884Z,59.61
2017-10-28T09:03:01.424Z,59.56
2017-10-28T09:05:27.634Z,59.54
2017-10-28T09:07:54.186Z,59.54
2017-10-28T09:10:20.380Z,59.48
2017-10-28T09:12:46.588Z,59.52
2017-10-28T09:15:13.474Z,59.58
2017-10-28T09:17:39.678Z,59.61
2017-10-28T09:20:05.875Z,59.66
2017-10-28T09:22:37.206Z,59.67
2017-10-28T09:25:03.390Z,59.73
2017-10-28T09:27:29.614Z,59.77
2017-10-28T09:29:56.325Z,59.66
2017-10-28T09:32:22.536Z,59.71
2017-10-28T09:34:48.739Z,59.64
2017-10-28T09:37:15.025Z,59.59
2017-10-28T09:39:41.226Z,59.60
2017-10-28T09:42:13.552Z,59.69
2017-10-28T09:44:40.275Z,59.68
2017-10-28T09:47:06.489Z,59.64
2017-10-28T09:49:32.703Z,59.72
2017-10-28T09:51:59.373Z,59.74
2017-10-28T09:54:25.602Z,59.65
2017-10-28T09:56:51.805Z,59.60
2017-10-28T09:59:18.068Z,59.65
2017-10-28T10:01:44.542Z,59.66
2017-10-28T10:04:10.758Z,59.52
2017-10-28T10:06:37.028Z,59.51
2017-10-28T10:09:03.317Z,59.57
2017-10-28T10:11:29.514Z,59.54
2017-10-28T10:13:55.854Z,59.47
2017-10-28T10:16:22.062Z,59.39
2017-10-28T10:18:48.278Z,59.36
2017-10-28T10:21:14.598Z,59.38
2017-10-28T10:23:41.028Z,59.41
2017-10-28T10:26:07.318Z,59.51
2017-10-28T10:28:34.402Z,59.51
2017-10-28T10:31:00.612Z,59.43
2017-10-28T10:33:26.798Z,59.42
2017-10-28T10:35:53.394Z,59.43
2017-10-28T10:38:19.830Z,59.40
2017-10-28T10:40:46.018Z,59.38
2017-10-28T10:43:12.696Z,59.34
2017-10-28T10:45:38.890Z,59.36
2017-10-28T10:48:05.100Z,59.40
2017-10-28T10:50:31.452Z,59.30
2017-10-28T10:52:57.654Z,59.30
2017-10-28T10:55:23.864Z,59.29
2017-10-28T10:57:50.178Z,59.27
2017-10-28T11:00:16.486Z,59.32
2017-10-28T11:02:42.708Z,59.46
2017-10-28T11:05:09.045Z,59.54
2017-10-28T11:07:35.474Z,59.53
2017-10-28T11:10:01.682Z,59.60
2017-10-28T11:12:28.702Z,59.58
2017-10-28T11:14:54.893Z,59.70
2017-10-28T11:17:21.326Z,59.73
2017-10-28T11:19:47.591Z,59.72
2017-10-28T11:22:13.834Z,59.61
2017-10-28T11:24:40.036Z,59.45
2017-10-28T11:27:06.750Z,59.47
2017-10-28T11:29:32.953Z,59.47
2017-10-28T11:31:59.150Z,59.52
2017-10-28T11:34:25.837Z,59.43
2017-10-28T11:36:52.029Z,59.40
2017-10-28T11:39:18.214Z,59.41
2017-10-28T11:41:44.469Z,59.57
2017-10-28T11:44:10.671Z,59.59
2017-10-28T11:46:36.863Z,59.56
2017-10-28T11:49:03.183Z,59.62
2017-10-28T11:51:29.612Z,59.63
2017-10-28T11:53:55.812Z,59.60
2017-10-28T11:56:22.148Z,59.64
2017-10-28T11:58:48.357Z,59.64
2017-10-28T12:01:14.815Z,59.52
2017-10-28T12:03:41.504Z,59.41
2017-10-28T12:06:07.698Z,59.44
2017-10-28T12:08:33.903Z,59.42
2017-10-28T12:11:00.170Z,59.42
2017-10-28T12:13:26.358Z,59.44
2017-10-28T12:15:52.581Z,59.48
2017-10-28T12:18:18.857Z,59.45
2017-10-28T12:20:45.306Z,59.45
2017-10-28T12:23:11.791Z,59.48
2017-10-28T12:25:38.030Z,59.46
2017-10-28T12:28:04.216Z,59.49
2017-10-28T12:30:30.678Z,59.54
2017-10-28T12:32:56.948Z,59.59
2017-10-28T12:35:23.148Z,59.61
2017-10-28T12:37:49.354Z,59.60
2017-10-28T12:40:15.986Z,59.59
2017-10-28T12:42:42.195Z,59.56
2017-10-28T12:45:08.490Z,59.55
2017-10-28T12:47:35.055Z,59.54
2017-10-28T12:50:01.282Z,59.53
2017-10-28T12:52:27.573Z,59.54
2017-10-28T12:54:54.158Z,59.54
2017-10-28T12:57:20.345Z,59.49
2017-10-28T12:59:46.554Z,59.55
2017-10-28T13:02:13.053Z,59.53
2017-10-28T13:04:39.358Z,59.58
2017-10-28T13:07:05.557Z,59.52
2017-10-28T13:09:32.148Z,59.52
2017-10-28T13:11:58.408Z,59.55
2017-10-28T13:14:24.842Z,59.61
2017-10-28T13:16:51.117Z,59.59
2017-10-28T13:19:17.318Z,59.57
2017-10-28T13:21:43.606Z,59.56
2017-10-28T13:24:10.170Z,59.56
2017-10-28T13:26:36.372Z,59.58
2017-10-28T13:29:02.578Z,59.60
2017-10-28T13:31:28.867Z,59.62
2017-10-28T13:33:55.082Z,59.65
2017-10-28T13:36:21.268Z,59.65
2017-10-28T13:38:47.560Z,59.65
2017-10-28T13:41:13.772Z,59.58
2017-10-28T13:43:40.205Z,59.60
2017-10-28T13:46:06.879Z,59.56
2017-10-28T13:48:33.073Z,59.54
2017-10-28T13:50:59.261Z,59.56
2017-10-28T13:53:25.903Z,59.56
2017-10-28T13:55:52.103Z,59.56
2017-10-28T13:58:18.302Z,59.50
2017-10-28T14:00:44.567Z,59.54
2017-10-28T14:03:10.770Z,59.55
2017-10-28T14:05:37.105Z,59.58
2017-10-28T14:08:03.985Z,59.58
2017-10-28T14:10:30.202Z,59.59
2017-10-28T14:12:56.412Z,59.59
2017-10-28T14:15:23.289Z,59.60
2017-10-28T14:17:49.506Z,59.61
2017-10-28T14:20:15.695Z,59.68
2017-10-28T14:22:42.270Z,59.72
2017-10-28T14:25:08.460Z,59.75
2017-10-28T14:27:34.666Z,59.74
2017-10-28T14:30:00.934Z,59.75
2017-10-28T14:32:27.134Z,59.69
2017-10-28T14:34:53.334Z,59.73
2017-10-28T14:37:19.682Z,59.73
2017-10-28T14:39:45.903Z,59.75
2017-10-28T14:42:12.350Z,59.79
2017-10-28T14:44:38.606Z,59.91
2017-10-28T14:47:04.813Z,59.92
2017-10-28T14:49:31.041Z,60.01
2017-10-28T14:51:57.366Z,60.05
2017-10-28T14:54:23.566Z,60.10
2017-10-28T14:56:49.767Z,60.16
2017-10-28T14:59:16.072Z,60.20
2017-10-28T15:01:42.325Z,60.29
2017-10-28T15:04:08.528Z,60.25
2017-10-28T15:06:34.816Z,60.24
2017-10-28T15:09:01.060Z,60.28
2017-10-28T15:11:27.307Z,60.30
2017-10-28T15:13:53.563Z,60.35
2017-10-28T15:16:19.765Z,60.36
2017-10-28T15:18:45.978Z,60.43
2017-10-28T15:21:12.246Z,60.44
2017-10-28T15:23:38.695Z,60.46
2017-10-28T15:26:05.131Z,60.50
2017-10-28T15:28:31.489Z,60.56
2017-10-28T15:30:57.686Z,60.56
2017-10-28T15:33:23.957Z,60.52
2017-10-28T15:35:50.270Z,60.56
2017-10-28T15:38:16.495Z,60.59
2017-10-28T15:40:42.746Z,60.61
2017-10-28T15:43:09.347Z,60.61
2017-10-28T15:45:35.555Z,60.59
2017-10-28T15:48:01.759Z,60.59
2017-10-28T15:50:28.141Z,60.58
2017-10-28T15:52:54.585Z,60.58
2017-10-28T15:55:20.773Z,60.58
2017-10-28T15:57:47.014Z,60.58
2017-10-28T16:00:13.232Z,60.54
2017-10-28T16:02:39.440Z,60.58
2017-10-28T16:05:05.771Z,60.59
2017-10-28T16:07:31.967Z,60.60
2017-10-28T16:09:58.396Z,60.57
2017-10-28T16:12:25.302Z,60.57
2017-10-28T16:14:51.530Z,60.54
2017-10-28T16:17:17.756Z,60.55
2017-10-28T16:19:44.394Z,60.53
2017-10-28T16:22:10.830Z,60.56
2017-10-28T16:24:37.049Z,60.48
2017-10-28T16:27:03.303Z,60.47
2017-10-28T16:29:29.601Z,60.43
2017-10-28T16:31:55.947Z,60.43
2017-10-28T16:34:22.326Z,60.47
2017-10-28T16:36:48.524Z,60.49
2017-10-28T16:39:14.726Z,60.48
2017-10-28T16:41:40.977Z,60.48
2017-10-28T16:44:07.517Z,60.51
2017-10-28T16:46:33.723Z,60.50
2017-10-28T16:48:59.976Z,60.53
2017-10-28T16:51:26.180Z,60.55
2017-10-28T16:53:52.381Z,60.53
2017-10-28T16:56:18.736Z,60.60
2017-10-28T16:58:45.193Z,60.62
2017-10-28T17:01:11.423Z,60.63
2017-10-28T17:03:37.771Z,60.60
2017-10-28T17:06:04.052Z,60.60
2017-10-28T17:08:30.237Z,60.63
2017-10-28T17:10:56.893Z,60.60
2017-10-28T17:13:23.108Z,60.63
2017-10-28T17:15:49.302Z,60.59
2017-10-28T17:18:15.891Z,60.63
2017-10-28T17:20:42.111Z,60.67
2017-10-28T17:23:08.297Z,60.65
2017-10-28T17:25:34.985Z,60.70
2017-10-28T17:28:01.194Z,60.68
2017-10-28T17:30:27.461Z,60.71
2017-10-28T17:32:53.951Z,60.71
2017-10-28T17:35:20.403Z,60.72
2017-10-28T17:37:46.619Z,60.74
2017-10-28T17:40:13.382Z,60.71
2017-10-28T17:42:39.608Z,60.70
2017-10-28T17:45:05.791Z,60.77
2017-10-28T17:47:32.114Z,60.77
2017-10-28T17:49:58.546Z,60.73
2017-10-28T17:52:24.761Z,60.70
2017-10-28T17:54:51.410Z,60.69
2017-10-28T17:57:17.622Z,60.66
2017-10-28T17:59:43.825Z,60.67
2017-10-28T18:02:10.507Z,60.68
2017-10-28T18:04:36.931Z,60.69
2017-10-28T18:07:03.208Z,60.74
2017-10-28T18:09:30.194Z,60.68
2017-10-28T18:11:56.391Z,60.71
2017-10-28T18:14:22.669Z,60.74
2017-10-28T18:16:49.311Z,60.71
2017-10-28T18:19:15.528Z,60.73
2017-10-28T18:21:41.963Z,60.76
2017-10-28T18:24:08.578Z,60.78
2017-10-28T18:26:34.763Z,60.76
2017-10-28T18:29:00.958Z,60.76
2017-10-28T18:31:27.354Z,60.81
2017-10-28T18:33:53.614Z,60.78
2017-10-28T18:36:19.814Z,60.79
2017-10-28T18:38:46.065Z,60.79
2017-10-28T18:41:12.271Z,60.78
2017-10-28T18:43:38.483Z,60.77
2017-10-28T18:46:04.988Z,60.81
2017-10-28T18:48:31.183Z,60.83
2017-10-28T18:50:57.396Z,60.83
2017-10-28T18:53:24.132Z,60.84
2017-10-28T18:55:50.324Z,60.87
2017-10-28T18:58:16.541Z,60.90
2017-10-28T19:00:42.896Z,60.86
2017-10-28T19:03:09.082Z,60.88
2017-10-28T19:05:35.289Z,60.84
2017-10-28T19:08:01.780Z,60.86
2017-10-28T19:10:28.016Z,60.92
2017-10-28T19:12:54.455Z,60.94
2017-10-28T19:15:20.796Z,60.92
2017-10-28T19:17:46.989Z,60.90
2017-10-28T19:20:13.431Z,60.92
2017-10-28T19:22:39.910Z,60.88
2017-10-28T19:25:06.106Z,60.85
2017-10-28T19:27:32.306Z,60.87
2017-10-28T19:29:58.558Z,60.88
2017-10-28T19:32:24.763Z,60.86
2017-10-28T19:34:50.966Z,60.83
2017-10-28T19:37:17.586Z,60.80
2017-10-28T19:39:43.794Z,60.78
2017-10-28T19:42:10.221Z,60.81
2017-10-28T19:44:36.487Z,60.83
2017-10-28T19:47:02.692Z,60.83
2017-10-28T19:49:28.903Z,60.87
2017-10-28T19:51:55.127Z,60.90
2017-10-28T19:54:21.714Z,60.90
2017-10-28T19:56:47.959Z,60.86
2017-10-28T19:59:14.166Z,60.86
2017-10-28T20:01:40.444Z,60.89
2017-10-28T20:04:06.639Z,60.89
2017-10-28T20:06:33.062Z,60.88
2017-10-28T20:08:59.618Z,60.83
2017-10-28T20:11:25.973Z,60.80
2017-10-28T20:13:52.178Z,60.77
2017-10-28T20:16:18.492Z,60.79
2017-10-28T20:18:44.758Z,60.80
2017-10-28T20:21:11.243Z,60.81
2017-10-28T20:23:37.440Z,60.81
2017-10-28T20:26:03.701Z,60.80
2017-10-28T20:28:30.155Z,60.81
2017-10-28T20:30:56.345Z,60.85
2017-10-28T20:33:23.205Z,60.81
2017-10-28T20:35:49.645Z,60.82
2017-10-28T20:38:15.890Z,60.80
2017-10-28T20:40:42.300Z,60.78
2017-10-28T20:43:08.496Z,60.75
2017-10-28T20:45:34.682Z,60.77
2017-10-28T20:48:00.943Z,60.77
2017-10-28T20:50:27.150Z,60.77
2017-10-28T20:52:53.357Z,60.78
2017-10-28T20:55:19.706Z,60.78
2017-10-28T20:57:46.009Z,60.80
2017-10-28T21:00:12.223Z,60.80
2017-10-28T21:02:38.811Z,60.82
2017-10-28T21:05:05.295Z,60.83
2017-10-28T21:07:31.497Z,60.83
2017-10-28T21:09:58.000Z,60.84
2017-10-28T21:12:24.523Z,60.85
2017-10-28T21:14:50.721Z,60.87
2017-10-28T21:17:16.966Z,60.90
2017-10-28T21:19:43.174Z,60.88
2017-10-28T21:22:09.380Z,60.94
2017-10-28T21:24:36.327Z,60.97
2017-10-28T21:27:02.766Z,60.96
2017-10-28T21:29:29.196Z,60.99
2017-10-28T21:31:55.449Z,60.99
2017-10-28T21:34:21.647Z,61.00
2017-10-28T21:36:48.087Z,61.03
2017-10-28T21:39:14.417Z,61.01
2017-10-28T21:41:40.612Z,61.01
2017-10-28T21:44:06.812Z,61.04
2017-10-28T21:46:33.387Z,61.05
2017-10-28T21:48:59.608Z,61.06
2017-10-28T21:51:25.801Z,61.06
2017-10-28T21:53:52.622Z,61.03
2017-10-28T21:56:18.831Z,61.06
2017-10-28T21:58:45.119Z,61.04
2017-10-28T22:01:11.347Z,61.03
2017-10-28T22:03:37.900Z,61.02
2017-10-28T22:06:04.096Z,61.02
2017-10-28T22:08:30.388Z,61.03
2017-10-28T22:10:56.883Z,61.03
2017-10-28T22:13:23.421Z,61.01
2017-10-28T22:15:49.635Z,61.02
2017-10-28T22:18:16.383Z,61.01
2017-10-28T22:20:42.825Z,61.05
2017-10-28T22:23:09.260Z,61.07
2017-10-28T22:25:35.568Z,61.02
2017-10-28T22:28:01.780Z,60.99
2017-10-28T22:30:27.974Z,60.95
2017-10-28T22:32:54.651Z,60.95
2017-10-28T22:35:20.840Z,60.86
2017-10-28T22:37:47.283Z,60.83
2017-10-28T22:40:13.623Z,60.87
2017-10-28T22:42:39.821Z,60.93
2017-10-28T22:45:06.022Z,60.96
2017-10-28T22:47:32.360Z,60.98
2017-10-28T22:49:58.551Z,60.97
2017-10-28T22:52:24.753Z,60.94
2017-10-28T22:54:51.322Z,60.91
2017-10-28T22:57:17.542Z,60.91
2017-10-28T22:59:43.987Z,60.97
2017-10-28T23:02:10.631Z,60.96
2017-10-28T23:04:36.813Z,61.00
2017-10-28T23:07:03.015Z,61.04
2017-10-28T23:09:29.278Z,61.05
2017-10-28T23:11:55.470Z,61.06
2017-10-28T23:14:21.782Z,61.02
2017-10-28T23:16:48.280Z,61.05
2017-10-28T23:19:14.733Z,61.07
2017-10-28T23:21:40.943Z,61.07
2017-10-28T23:24:07.324Z,61.04
2017-10-28T23:26:33.540Z,61.05
2017-10-28T23:28:59.742Z,61.08
2017-10-28T23:31:26.394Z,61.11
2017-10-28T23:33:52.572Z,61.14
2017-10-28T23:36:18.776Z,61.16
2017-10-28T23:38:45.391Z,61.20
2017-10-28T23:41:11.568Z,61.17
2017-10-28T23:43:38.023Z,61.18
2017-10-28T23:46:04.350Z,61.18
2017-10-28T23:48:30.542Z,61.20
2017-10-28T23:50:56.737Z,61.18
2017-10-28T23:53:23.029Z,61.18
2017-10-28T23:55:49.215Z,61.24
2017-10-28T23:58:15.458Z,61.15
